createdAt,value
2017-06-03T04:46:53.543Z,81.98
2017-06-03T04:47:19.028Z,82.27
2017-06-03T04:47:44.518Z,83.14
2017-06-03T04:48:10.007Z,83.72
2017-06-03T04:48:35.486Z,83.14
2017-06-03T04:49:00.984Z,83.62
2017-06-03T04:49:26.456Z,83.81
2017-06-03T04:49:51.913Z,84.19
2017-06-03T04:50:17.411Z,84.19
2017-06-03T04:50:42.887Z,84.1
2017-06-03T04:51:08.368Z,84
2017-06-03T04:51:33.854Z,84.67
2017-06-03T04:51:59.348Z,84.67
2017-06-03T04:52:24.838Z,84.48
2017-06-03T04:52:50.324Z,84.39
2017-06-03T04:53:15.822Z,84.67
2017-06-03T04:53:41.301Z,84.83
2017-06-03T04:54:06.767Z,84.73
2017-06-03T04:54:32.264Z,84.54
2017-06-03T04:54:57.747Z,84.97
2017-06-03T04:55:23.231Z,85.31
2017-06-03T04:55:48.705Z,85.4
2017-06-03T04:56:14.198Z,85.6
2017-06-03T04:56:39.682Z,85.35
2017-06-03T04:57:05.147Z,85.21
2017-06-03T04:57:30.642Z,85.6
2017-06-03T04:57:56.122Z,85.5
2017-06-03T04:58:21.599Z,85.6
2017-06-03T04:58:47.103Z,85.78
2017-06-03T04:59:12.554Z,85.78
2017-06-03T04:59:38.030Z,85.98
2017-06-03T05:00:03.513Z,85.98
2017-06-03T05:00:29.004Z,85.98
2017-06-03T05:00:54.497Z,86.27
2017-06-03T05:01:19.991Z,85.98
2017-06-03T05:01:45.482Z,86.27
2017-06-03T05:02:10.974Z,86.46
2017-06-03T05:02:36.458Z,85.98
2017-06-03T05:03:01.934Z,86.36
2017-06-03T05:03:27.428Z,86.46
2017-06-03T05:03:52.913Z,86.36
2017-06-03T05:04:18.398Z,86.08
2017-06-03T05:04:43.861Z,86.08
2017-06-03T05:05:09.363Z,86.27
2017-06-03T05:05:34.859Z,86.46
2017-06-03T05:06:00.371Z,86.18
2017-06-03T05:06:25.875Z,85.78
2017-06-03T05:06:51.340Z,85.98
2017-06-03T05:07:16.805Z,85.31
2017-06-03T05:07:42.285Z,85.6
2017-06-03T05:08:07.787Z,85.31
2017-06-03T05:08:33.275Z,85.78
2017-06-03T05:08:58.775Z,85.6
2017-06-03T05:09:24.276Z,85.88
2017-06-03T05:09:49.752Z,86.18
2017-06-03T05:10:15.239Z,86.27
2017-06-03T05:10:40.741Z,86.27
2017-06-03T05:11:06.238Z,86.08
2017-06-03T05:11:31.710Z,85.98
2017-06-03T05:11:57.220Z,85.98
2017-06-03T05:12:22.720Z,85.88
2017-06-03T05:12:48.190Z,86.18
2017-06-03T05:13:13.676Z,86.08
2017-06-03T05:13:39.152Z,85.98
2017-06-03T05:14:04.634Z,85.88
2017-06-03T05:14:30.112Z,86.08
2017-06-03T05:14:55.588Z,85.98
2017-06-03T05:15:21.072Z,86.08
2017-06-03T05:15:46.538Z,85.88
2017-06-03T05:16:11.998Z,85.98
2017-06-03T05:16:37.476Z,85.88
2017-06-03T05:17:02.958Z,86.27
2017-06-03T05:17:28.458Z,85.98
2017-06-03T05:17:53.923Z,86.22
2017-06-03T05:18:19.413Z,86.18
2017-06-03T05:18:44.899Z,86.08
2017-06-03T05:19:10.364Z,86.18
2017-06-03T05:19:35.834Z,86.18
2017-06-03T05:20:01.309Z,85.93
2017-06-03T05:20:26.774Z,86.02
2017-06-03T05:20:52.266Z,85.83
2017-06-03T05:21:17.740Z,85.83
2017-06-03T05:21:43.250Z,85.54
2017-06-03T05:22:08.721Z,85.44
2017-06-03T05:22:34.215Z,85.83
2017-06-03T05:22:59.688Z,85.54
2017-06-03T05:23:25.170Z,85.64
2017-06-03T05:23:50.643Z,85.64
2017-06-03T05:24:16.120Z,85.35
2017-06-03T05:24:41.598Z,85.64
2017-06-03T05:25:07.075Z,85.74
2017-06-03T05:25:32.546Z,85.64
2017-06-03T05:25:58.038Z,85.64
2017-06-03T05:26:23.505Z,85.54
2017-06-03T05:26:49.034Z,85.64
2017-06-03T05:27:14.494Z,85.25
2017-06-03T05:27:39.950Z,85.16
2017-06-03T05:28:05.458Z,85.16
2017-06-03T05:28:30.973Z,85.06
2017-06-03T05:28:56.477Z,85.1
2017-06-03T05:29:21.954Z,85.25
2017-06-03T05:29:47.423Z,85.16
2017-06-03T05:30:12.903Z,84.97
2017-06-03T05:30:38.391Z,85.16
2017-06-03T05:31:03.905Z,85
2017-06-03T05:31:29.376Z,84.91
2017-06-03T05:31:54.880Z,84.91
2017-06-03T05:32:20.345Z,84.91
2017-06-03T05:32:45.852Z,84.72
2017-06-03T05:33:11.328Z,84.91
2017-06-03T05:33:36.831Z,85.1
2017-06-03T05:34:02.316Z,84.81
2017-06-03T05:34:27.802Z,85.1
2017-06-03T05:34:53.290Z,85.1
2017-06-03T05:35:18.787Z,84.53
2017-06-03T05:35:44.270Z,84.33
2017-06-03T05:36:09.756Z,84.23
2017-06-03T05:36:35.234Z,84.23
2017-06-03T05:37:00.697Z,84.14
2017-06-03T05:37:26.192Z,84.23
2017-06-03T05:37:51.683Z,84.62
2017-06-03T05:38:17.182Z,84.53
2017-06-03T05:38:42.668Z,84.43
2017-06-03T05:39:08.145Z,84.53
2017-06-03T05:39:33.647Z,84.23
2017-06-03T05:39:59.093Z,84.33
2017-06-03T05:40:24.570Z,84.43
2017-06-03T05:40:50.063Z,84.43
2017-06-03T05:41:15.534Z,84.23
2017-06-03T05:41:41.044Z,84.43
2017-06-03T05:42:06.524Z,84.23
2017-06-03T05:42:31.989Z,84.05
2017-06-03T05:42:57.438Z,84.23
2017-06-03T05:43:22.936Z,84.43
2017-06-03T05:43:48.414Z,84.53
2017-06-03T05:44:13.908Z,84.53
2017-06-03T05:44:39.382Z,84.23
2017-06-03T05:45:04.836Z,84.43
2017-06-03T05:45:30.314Z,84.05
2017-06-03T05:45:55.813Z,84.53
2017-06-03T05:46:21.293Z,85.1
2017-06-03T05:46:46.784Z,84.72
2017-06-03T05:47:12.250Z,85.2
2017-06-03T05:47:37.734Z,85.2
2017-06-03T05:48:03.225Z,85.3
2017-06-03T05:48:28.694Z,85.1
2017-06-03T05:48:54.186Z,85
2017-06-03T05:49:19.665Z,85
2017-06-03T05:49:45.160Z,85.1
2017-06-03T05:50:10.635Z,84.87
2017-06-03T05:50:36.124Z,85
2017-06-03T05:51:01.604Z,85.3
2017-06-03T05:51:27.101Z,85.1
2017-06-03T05:51:52.569Z,85.1
2017-06-03T05:52:18.042Z,85.54
2017-06-03T05:52:43.516Z,85.16
2017-06-03T05:53:08.986Z,85.06
2017-06-03T05:53:34.487Z,85.58
2017-06-03T05:53:59.972Z,85.74
2017-06-03T05:54:25.477Z,85.25
2017-06-03T05:54:50.996Z,85.2
2017-06-03T05:55:16.491Z,85.58
2017-06-03T05:55:41.977Z,85.39
2017-06-03T05:56:07.473Z,85.49
2017-06-03T05:56:32.960Z,85.78
2017-06-03T05:56:58.459Z,85.68
2017-06-03T05:57:23.938Z,85.78
2017-06-03T05:57:49.412Z,85.68
2017-06-03T05:58:14.909Z,85
2017-06-03T05:58:40.386Z,85.2
2017-06-03T05:59:05.880Z,85.1
2017-06-03T05:59:31.373Z,85
2017-06-03T05:59:56.854Z,85.3
2017-06-03T06:00:22.332Z,85.1
2017-06-03T06:00:47.808Z,85.2
2017-06-03T06:01:13.316Z,84.81
2017-06-03T06:01:38.792Z,85.39
2017-06-03T06:02:04.293Z,85.68
2017-06-03T06:02:29.740Z,85.49
2017-06-03T06:02:55.184Z,85.58
2017-06-03T06:03:20.673Z,85.58
2017-06-03T06:03:46.132Z,85.78
2017-06-03T06:04:11.657Z,85.2
2017-06-03T06:04:37.121Z,85.2
2017-06-03T06:05:02.602Z,84.81
2017-06-03T06:05:28.063Z,85.1
2017-06-03T06:05:53.553Z,85.2
2017-06-03T06:06:19.051Z,85.58
2017-06-03T06:06:44.530Z,85.68
2017-06-03T06:07:10.027Z,85.34
2017-06-03T06:07:35.528Z,85.1
2017-06-03T06:08:01.012Z,85.1
2017-06-03T06:08:26.502Z,84.91
2017-06-03T06:08:51.996Z,84.81
2017-06-03T06:09:17.467Z,85.05
2017-06-03T06:09:42.967Z,84.47
2017-06-03T06:10:08.443Z,84.18
2017-06-03T06:10:33.908Z,84.28
2017-06-03T06:10:59.378Z,84.28
2017-06-03T06:11:24.865Z,84.09
2017-06-03T06:11:50.355Z,84.28
2017-06-03T06:12:15.845Z,83.22
2017-06-03T06:12:41.316Z,83.7
2017-06-03T06:13:06.795Z,83.89
2017-06-03T06:13:32.297Z,83.61
2017-06-03T06:13:57.770Z,83.22
2017-06-03T06:14:23.263Z,83.22
2017-06-03T06:14:48.737Z,83.22
2017-06-03T06:15:14.240Z,83.61
2017-06-03T06:15:39.714Z,83.51
2017-06-03T06:16:05.212Z,83.31
2017-06-03T06:16:30.669Z,83.7
2017-06-03T06:16:56.173Z,83.61
2017-06-03T06:17:21.647Z,83.8
2017-06-03T06:17:47.111Z,83.22
2017-06-03T06:18:12.614Z,83.31
2017-06-03T06:18:38.084Z,82.93
2017-06-03T06:19:03.545Z,83.03
2017-06-03T06:19:29.017Z,83.31
2017-06-03T06:19:54.501Z,83.31
2017-06-03T06:20:19.980Z,83.03
2017-06-03T06:20:45.474Z,83.41
2017-06-03T06:21:10.936Z,83.51
2017-06-03T06:21:36.406Z,83.22
2017-06-03T06:22:01.893Z,82.74
2017-06-03T06:22:27.394Z,82.83
2017-06-03T06:22:52.877Z,82.54
2017-06-03T06:23:18.358Z,82.64
2017-06-03T06:23:43.894Z,82.45
2017-06-03T06:24:09.385Z,82.45
2017-06-03T06:24:34.889Z,82.93
2017-06-03T06:25:00.338Z,82.74
2017-06-03T06:25:25.798Z,82.83
2017-06-03T06:25:51.292Z,83.22
2017-06-03T06:26:16.783Z,83.31
2017-06-03T06:26:42.286Z,83.22
2017-06-03T06:27:07.753Z,83.22
2017-06-03T06:27:33.240Z,82.93
2017-06-03T06:27:58.734Z,83.31
2017-06-03T06:28:24.206Z,83.22
2017-06-03T06:28:49.704Z,83.22
2017-06-03T06:29:15.169Z,82.83
2017-06-03T06:29:40.671Z,82.83
2017-06-03T06:30:06.181Z,83.12
2017-06-03T06:30:31.636Z,82.93
2017-06-03T06:30:57.920Z,82.93
2017-06-03T06:31:23.422Z,82.83
2017-06-03T06:31:48.906Z,82.64
2017-06-03T06:32:14.396Z,82.64
2017-06-03T06:32:39.873Z,82.93
2017-06-03T06:33:05.351Z,83.22
2017-06-03T06:33:30.880Z,82.64
2017-06-03T06:33:56.354Z,82.74
2017-06-03T06:34:21.817Z,82.93
2017-06-03T06:34:47.317Z,82.87
2017-06-03T06:35:12.785Z,82.06
2017-06-03T06:35:38.299Z,82.49
2017-06-03T06:36:03.775Z,82.54
2017-06-03T06:36:29.252Z,82.06
2017-06-03T06:36:54.720Z,81.62
2017-06-03T06:37:20.206Z,81.62
2017-06-03T06:37:45.668Z,81.62
2017-06-03T06:38:11.136Z,81.52
2017-06-03T06:38:36.645Z,81.91
2017-06-03T06:39:02.135Z,81.72
2017-06-03T06:39:27.623Z,81.62
2017-06-03T06:39:53.119Z,81.91
2017-06-03T06:40:18.599Z,82.01
2017-06-03T06:40:44.089Z,81.81
2017-06-03T06:41:09.552Z,81.14
2017-06-03T06:41:35.041Z,80.94
2017-06-03T06:42:00.559Z,81.14
2017-06-03T06:42:26.026Z,80.94
2017-06-03T06:42:51.508Z,81.14
2017-06-03T06:43:17.001Z,80.66
2017-06-03T06:43:42.509Z,80.66
2017-06-03T06:44:07.978Z,80.85
2017-06-03T06:44:33.437Z,81.33
2017-06-03T06:44:58.931Z,80.94
2017-06-03T06:45:24.426Z,80.76
2017-06-03T06:45:49.933Z,80.08
2017-06-03T06:46:15.411Z,80.27
2017-06-03T06:46:40.910Z,80.37
2017-06-03T06:47:06.367Z,80.46
2017-06-03T06:47:31.853Z,80.08
2017-06-03T06:47:57.345Z,80.37
2017-06-03T06:48:22.859Z,80.56
2017-06-03T06:48:48.351Z,80.76
2017-06-03T06:49:13.844Z,80.37
2017-06-03T06:49:39.320Z,80.46
2017-06-03T06:50:04.812Z,80.18
2017-06-03T06:50:30.279Z,79.89
2017-06-03T06:50:55.784Z,80.08
2017-06-03T06:51:21.277Z,80.27
2017-06-03T06:51:46.756Z,80.76
2017-06-03T06:52:12.210Z,80.85
2017-06-03T06:52:37.703Z,80.66
2017-06-03T06:53:03.173Z,80.27
2017-06-03T06:53:28.652Z,80.76
2017-06-03T06:53:54.125Z,80.76
2017-06-03T06:54:19.621Z,80.85
2017-06-03T06:54:45.096Z,80.18
2017-06-03T06:55:10.574Z,80.27
2017-06-03T06:55:36.076Z,79.79
2017-06-03T06:56:01.552Z,79.89
2017-06-03T06:56:27.050Z,80.18
2017-06-03T06:56:52.528Z,80.76
2017-06-03T06:57:18.002Z,80.27
2017-06-03T06:57:43.483Z,80.56
2017-06-03T06:58:08.974Z,80.66
2017-06-03T06:58:34.439Z,80.56
2017-06-03T06:58:59.923Z,80.08
2017-06-03T06:59:25.398Z,80.37
2017-06-03T06:59:50.857Z,80.56
2017-06-03T07:00:16.340Z,80.66
2017-06-03T07:00:41.868Z,80.85
2017-06-03T07:01:07.351Z,80.27
2017-06-03T07:01:32.832Z,80.66
2017-06-03T07:01:58.306Z,80.85
2017-06-03T07:02:23.813Z,80.85
2017-06-03T07:02:49.321Z,80.37
2017-06-03T07:03:14.798Z,80.46
2017-06-03T07:03:40.290Z,80.37
2017-06-03T07:04:05.776Z,80.08
2017-06-03T07:04:31.266Z,80.08
2017-06-03T07:04:56.742Z,80.08
2017-06-03T07:05:22.241Z,80.27
2017-06-03T07:05:47.692Z,80.08
2017-06-03T07:06:13.207Z,79.6
2017-06-03T07:06:38.652Z,79.5
2017-06-03T07:07:04.143Z,79.41
2017-06-03T07:07:29.641Z,79.98
2017-06-03T07:07:55.094Z,79.6
2017-06-03T07:08:20.589Z,79.89
2017-06-03T07:08:46.110Z,79.89
2017-06-03T07:09:11.593Z,79.79
2017-06-03T07:09:37.076Z,79.89
2017-06-03T07:10:02.593Z,79.89
2017-06-03T07:10:28.071Z,80.08
2017-06-03T07:10:53.542Z,79.69
2017-06-03T07:11:19.034Z,79.79
2017-06-03T07:11:44.511Z,79.5
2017-06-03T07:12:09.981Z,79.41
2017-06-03T07:12:35.465Z,79.31
2017-06-03T07:13:00.971Z,79.6
2017-06-03T07:13:26.457Z,79.79
2017-06-03T07:13:51.950Z,79.5
2017-06-03T07:14:17.425Z,79.69
2017-06-03T07:14:42.879Z,79.79
2017-06-03T07:15:08.377Z,79.5
2017-06-03T07:15:33.875Z,79.31
2017-06-03T07:15:59.336Z,78.73
2017-06-03T07:16:24.816Z,79.02
2017-06-03T07:16:50.282Z,78.83
2017-06-03T07:17:15.778Z,78.44
2017-06-03T07:17:41.249Z,78.63
2017-06-03T07:18:06.724Z,78.54
2017-06-03T07:18:32.220Z,78.92
2017-06-03T07:18:57.702Z,78.25
2017-06-03T07:19:23.170Z,78.34
2017-06-03T07:19:48.666Z,78.15
2017-06-03T07:20:14.130Z,78.92
2017-06-03T07:20:39.593Z,79.11
2017-06-03T07:21:05.070Z,79.31
2017-06-03T07:21:30.547Z,78.92
2017-06-03T07:21:56.010Z,79.02
2017-06-03T07:22:21.489Z,79.21
2017-06-03T07:22:46.965Z,79.41
2017-06-03T07:23:12.454Z,79.41
2017-06-03T07:23:37.906Z,79.6
2017-06-03T07:24:03.386Z,79.11
2017-06-03T07:24:28.860Z,79.02
2017-06-03T07:24:54.326Z,78.83
2017-06-03T07:25:19.812Z,78.54
2017-06-03T07:25:45.273Z,78.92
2017-06-03T07:26:10.786Z,78.34
2017-06-03T07:26:36.258Z,78.54
2017-06-03T07:27:01.735Z,78.44
2017-06-03T07:27:27.213Z,78.15
2017-06-03T07:27:52.684Z,78.73
2017-06-03T07:28:18.166Z,78.15
2017-06-03T07:28:43.638Z,78.83
2017-06-03T07:29:09.128Z,78.15
2017-06-03T07:29:34.613Z,78.15
2017-06-03T07:30:00.100Z,77.86
2017-06-03T07:30:25.594Z,78.54
2017-06-03T07:30:51.090Z,78.34
2017-06-03T07:31:16.668Z,78.73
2017-06-03T07:31:42.174Z,78.73
2017-06-03T07:32:07.644Z,78.54
2017-06-03T07:32:33.123Z,78.44
2017-06-03T07:32:58.602Z,78.44
2017-06-03T07:33:24.124Z,78.73
2017-06-03T07:33:49.622Z,78.44
2017-06-03T07:34:15.097Z,78.54
2017-06-03T07:34:40.599Z,78.44
2017-06-03T07:35:06.074Z,78.63
2017-06-03T07:35:31.542Z,78.34
2017-06-03T07:35:57.037Z,78.34
2017-06-03T07:36:22.519Z,78.25
2017-06-03T07:36:47.990Z,79.02
2017-06-03T07:37:13.483Z,78.92
2017-06-03T07:37:38.975Z,78.92
2017-06-03T07:38:04.531Z,78.92
2017-06-03T07:38:30.028Z,78.92
2017-06-03T07:38:55.523Z,78.54
2017-06-03T07:39:20.987Z,79.02
2017-06-03T07:39:46.445Z,78.92
2017-06-03T07:40:11.931Z,79.02
2017-06-03T07:40:37.445Z,79.6
2017-06-03T07:41:02.919Z,79.6
2017-06-03T07:41:28.425Z,79.79
2017-06-03T07:41:53.946Z,79.31
2017-06-03T07:42:19.432Z,79.46
2017-06-03T07:42:44.910Z,79.69
2017-06-03T07:43:10.401Z,79.41
2017-06-03T07:43:35.880Z,79.46
2017-06-03T07:44:01.383Z,79.56
2017-06-03T07:44:26.844Z,79.66
2017-06-03T07:44:52.327Z,80.04
2017-06-03T07:45:17.816Z,79.46
2017-06-03T07:45:43.276Z,79.36
2017-06-03T07:46:08.753Z,79.36
2017-06-03T07:46:34.257Z,79.66
2017-06-03T07:46:59.719Z,79.17
2017-06-03T07:47:25.191Z,78.98
2017-06-03T07:47:50.671Z,79.56
2017-06-03T07:48:16.148Z,79.27
2017-06-03T07:48:41.654Z,79.36
2017-06-03T07:49:07.123Z,79.46
2017-06-03T07:49:32.591Z,79.27
2017-06-03T07:49:58.045Z,78.79
2017-06-03T07:50:23.537Z,79.27
2017-06-03T07:50:49.030Z,79.36
2017-06-03T07:51:14.489Z,79.36
2017-06-03T07:51:39.990Z,79.56
2017-06-03T07:52:05.466Z,79.36
2017-06-03T07:52:30.940Z,79.56
2017-06-03T07:52:56.424Z,79.46
2017-06-03T07:53:21.913Z,79.46
2017-06-03T07:53:47.397Z,79.94
2017-06-03T07:54:12.893Z,79.89
2017-06-03T07:54:38.369Z,79.98
2017-06-03T07:55:03.828Z,79.31
2017-06-03T07:55:29.293Z,79.6
2017-06-03T07:55:54.785Z,79.41
2017-06-03T07:56:20.304Z,79.31
2017-06-03T07:56:45.804Z,79.6
2017-06-03T07:57:11.287Z,79.21
2017-06-03T07:57:36.745Z,78.92
2017-06-03T07:58:02.230Z,78.92
2017-06-03T07:58:27.692Z,79.02
2017-06-03T07:58:53.191Z,79.11
2017-06-03T07:59:18.631Z,78.63
2017-06-03T07:59:44.118Z,78.25
2017-06-03T08:00:09.627Z,78.15
2017-06-03T08:00:35.117Z,78.06
2017-06-03T08:01:00.606Z,78.34
2017-06-03T08:01:26.092Z,78.06
2017-06-03T08:01:51.576Z,77.96
2017-06-03T08:02:17.032Z,77.51
2017-06-03T08:02:42.516Z,77.61
2017-06-03T08:03:07.967Z,77.13
2017-06-03T08:03:33.431Z,77.33
2017-06-03T08:03:58.918Z,76.75
2017-06-03T08:04:24.405Z,76.75
2017-06-03T08:04:49.901Z,76.55
2017-06-03T08:05:15.396Z,76.84
2017-06-03T08:05:40.900Z,76.84
2017-06-03T08:06:06.391Z,76.84
2017-06-03T08:06:31.884Z,76.75
2017-06-03T08:06:57.392Z,76.65
2017-06-03T08:07:22.873Z,76.17
2017-06-03T08:07:48.364Z,75.88
2017-06-03T08:08:13.870Z,75.4
2017-06-03T08:08:39.364Z,75.3
2017-06-03T08:09:04.860Z,75.78
2017-06-03T08:09:30.352Z,75.78
2017-06-03T08:09:55.855Z,74.62
2017-06-03T08:10:21.339Z,74.66
2017-06-03T08:10:46.824Z,75.01
2017-06-03T08:11:12.311Z,74.72
2017-06-03T08:11:37.785Z,74.66
2017-06-03T08:12:03.280Z,74.43
2017-06-03T08:12:28.756Z,73.99
2017-06-03T08:12:54.250Z,73.5
2017-06-03T08:13:19.755Z,73.5
2017-06-03T08:13:45.235Z,73.69
2017-06-03T08:14:10.744Z,73.5
2017-06-03T08:14:36.244Z,73.99
2017-06-03T08:15:01.755Z,73.5
2017-06-03T08:15:27.263Z,73.11
2017-06-03T08:15:52.732Z,73.41
2017-06-03T08:16:18.205Z,73.35
2017-06-03T08:16:43.720Z,73.11
2017-06-03T08:17:09.208Z,72.73
2017-06-03T08:17:34.678Z,72.09
2017-06-03T08:18:00.175Z,72.58
2017-06-03T08:18:25.675Z,71.9
2017-06-03T08:18:51.183Z,71.8
2017-06-03T08:19:16.661Z,71.7
2017-06-03T08:19:42.138Z,71.7
2017-06-03T08:20:07.594Z,71.8
2017-06-03T08:20:33.100Z,71.42
2017-06-03T08:20:58.579Z,71.22
2017-06-03T08:21:24.055Z,71.42
2017-06-03T08:21:49.534Z,70.84
2017-06-03T08:22:15.016Z,70.97
2017-06-03T08:22:40.507Z,71.16
2017-06-03T08:23:05.997Z,70.87
2017-06-03T08:23:31.520Z,69.9
2017-06-03T08:23:57.001Z,70.58
2017-06-03T08:24:22.477Z,69.9
2017-06-03T08:24:47.973Z,70
2017-06-03T08:25:13.458Z,69.81
2017-06-03T08:25:38.944Z,69.42
2017-06-03T08:26:04.421Z,69.32
2017-06-03T08:26:29.887Z,69.13
2017-06-03T08:26:55.377Z,68.94
2017-06-03T08:27:20.879Z,68.26
2017-06-03T08:27:46.373Z,67.59
2017-06-03T08:28:11.863Z,67.78
2017-06-03T08:28:37.373Z,67.59
2017-06-03T08:29:02.878Z,67.49
2017-06-03T08:29:28.352Z,67.88
2017-06-03T08:29:53.873Z,67.69
2017-06-03T08:30:19.325Z,67.69
2017-06-03T08:30:44.808Z,67.3
2017-06-03T08:31:10.285Z,66.91
2017-06-03T08:31:35.788Z,67.4
2017-06-03T08:32:01.282Z,67.24
2017-06-03T08:32:26.771Z,66.72
2017-06-03T08:32:52.231Z,66.85
2017-06-03T08:33:17.706Z,66.14
2017-06-03T08:33:43.160Z,66.17
2017-06-03T08:34:08.660Z,66.36
2017-06-03T08:34:34.135Z,66.75
2017-06-03T08:34:59.648Z,66.75
2017-06-03T08:35:25.124Z,66.66
2017-06-03T08:35:50.615Z,66.85
2017-06-03T08:36:16.097Z,66.46
2017-06-03T08:36:41.567Z,66.46
2017-06-03T08:37:07.058Z,66.56
2017-06-03T08:37:32.534Z,66.46
2017-06-03T08:37:58.023Z,66.66
2017-06-03T08:38:23.519Z,66.36
2017-06-03T08:38:49.012Z,66.17
2017-06-03T08:39:14.478Z,65.59
2017-06-03T08:39:39.965Z,65.59
2017-06-03T08:40:05.425Z,65.59
2017-06-03T08:40:30.901Z,65.88
2017-06-03T08:40:56.389Z,66.01
2017-06-03T08:41:21.864Z,65.69
2017-06-03T08:41:47.359Z,65.92
2017-06-03T08:42:12.857Z,65.63
2017-06-03T08:42:38.354Z,65.82
2017-06-03T08:43:03.830Z,65.43
2017-06-03T08:43:29.310Z,65.53
2017-06-03T08:43:54.803Z,65.43
2017-06-03T08:44:20.282Z,65.43
2017-06-03T08:44:45.733Z,65.72
2017-06-03T08:45:11.188Z,65.43
2017-06-03T08:45:36.687Z,65.53
2017-06-03T08:46:02.176Z,65.14
2017-06-03T08:46:27.678Z,65.24
2017-06-03T08:46:53.155Z,65.24
2017-06-03T08:47:18.645Z,64.95
2017-06-03T08:47:44.133Z,64.56
2017-06-03T08:48:09.600Z,64.89
2017-06-03T08:48:35.073Z,64.98
2017-06-03T08:49:00.555Z,65.08
2017-06-03T08:49:26.038Z,64.98
2017-06-03T08:49:51.518Z,64.21
2017-06-03T08:50:17.008Z,64.01
2017-06-03T08:50:42.483Z,64.34
2017-06-03T08:51:07.969Z,63.85
2017-06-03T08:51:33.449Z,63.85
2017-06-03T08:51:58.956Z,63.66
2017-06-03T08:52:24.449Z,63.76
2017-06-03T08:52:49.943Z,63.85
2017-06-03T08:53:15.430Z,63.69
2017-06-03T08:53:40.930Z,63.31
2017-06-03T08:54:06.423Z,63.31
2017-06-03T08:54:31.904Z,62.82
2017-06-03T08:54:57.359Z,61.98
2017-06-03T08:55:22.847Z,62.37
2017-06-03T08:55:48.328Z,61.49
2017-06-03T08:56:13.816Z,61.59
2017-06-03T08:56:39.307Z,61.98
2017-06-03T08:57:04.792Z,61.3
2017-06-03T08:57:30.291Z,61.11
2017-06-03T08:57:55.777Z,61.21
2017-06-03T08:58:21.255Z,61.3
2017-06-03T08:58:46.728Z,61.01
2017-06-03T08:59:12.205Z,61.01
2017-06-03T08:59:37.708Z,60.91
2017-06-03T09:00:03.198Z,60.43
2017-06-03T09:00:28.671Z,60.52
2017-06-03T09:00:54.170Z,60.91
2017-06-03T09:01:19.616Z,61.01
2017-06-03T09:01:45.101Z,61.21
2017-06-03T09:02:10.575Z,61.11
2017-06-03T09:02:36.064Z,61.01
2017-06-03T09:03:01.539Z,61.11
2017-06-03T09:03:27.038Z,61.11
2017-06-03T09:03:52.500Z,61.69
2017-06-03T09:04:17.992Z,61.3
2017-06-03T09:04:43.475Z,61.21
2017-06-03T09:05:08.959Z,61.11
2017-06-03T09:05:34.442Z,61.21
2017-06-03T09:05:59.889Z,61.4
2017-06-03T09:06:25.330Z,61.21
2017-06-03T09:06:50.831Z,61.3
2017-06-03T09:07:16.309Z,61.49
2017-06-03T09:07:41.799Z,61.21
2017-06-03T09:08:07.309Z,61.04
2017-06-03T09:08:32.792Z,60.94
2017-06-03T09:08:58.265Z,60.75
2017-06-03T09:09:23.820Z,60.17
2017-06-03T09:09:49.284Z,60.46
2017-06-03T09:10:14.823Z,59.97
2017-06-03T09:10:40.308Z,59.88
2017-06-03T09:11:05.775Z,59.81
2017-06-03T09:11:31.217Z,59.88
2017-06-03T09:11:56.660Z,59.52
2017-06-03T09:12:22.152Z,59.13
2017-06-03T09:12:47.624Z,59.13
2017-06-03T09:13:13.150Z,58.74
2017-06-03T09:13:38.613Z,58.84
2017-06-03T09:14:04.098Z,58.55
2017-06-03T09:14:29.578Z,57.87
2017-06-03T09:14:55.049Z,57.58
2017-06-03T09:15:20.540Z,57.78
2017-06-03T09:15:46.025Z,57.68
2017-06-03T09:16:11.499Z,57.48
2017-06-03T09:16:36.977Z,57.29
2017-06-03T09:17:02.453Z,56.9
2017-06-03T09:17:27.936Z,56.71
2017-06-03T09:17:53.421Z,56.81
2017-06-03T09:18:18.896Z,56.9
2017-06-03T09:18:44.386Z,57.09
2017-06-03T09:19:09.849Z,57.61
2017-06-03T09:19:35.328Z,57.58
2017-06-03T09:20:00.829Z,56.9
2017-06-03T09:20:26.319Z,56.74
2017-06-03T09:20:51.798Z,57.32
2017-06-03T09:21:17.289Z,56.93
2017-06-03T09:21:42.766Z,57.32
2017-06-03T09:22:08.239Z,56.74
2017-06-03T09:22:33.752Z,56.74
2017-06-03T09:22:59.233Z,56.93
2017-06-03T09:23:24.726Z,56.74
2017-06-03T09:23:50.189Z,56.74
2017-06-03T09:24:15.712Z,57.03
2017-06-03T09:24:41.149Z,56.74
2017-06-03T09:25:06.636Z,56.83
2017-06-03T09:25:32.147Z,56.54
2017-06-03T09:25:57.597Z,56.45
2017-06-03T09:26:23.071Z,56.76
2017-06-03T09:26:48.601Z,56.18
2017-06-03T09:27:14.091Z,55.99
2017-06-03T09:27:39.567Z,55.99
2017-06-03T09:28:05.079Z,55.69
2017-06-03T09:28:30.552Z,55.41
2017-06-03T09:28:56.042Z,55.41
2017-06-03T09:29:21.512Z,55.41
2017-06-03T09:29:46.995Z,54.92
2017-06-03T09:30:12.518Z,55.31
2017-06-03T09:30:38.020Z,55.21
2017-06-03T09:31:03.495Z,54.72
2017-06-03T09:31:28.985Z,54.85
2017-06-03T09:31:54.450Z,54.75
2017-06-03T09:32:19.931Z,54.94
2017-06-03T09:32:45.422Z,54.36
2017-06-03T09:33:10.922Z,54.07
2017-06-03T09:33:36.405Z,54.07
2017-06-03T09:34:01.876Z,53.78
2017-06-03T09:34:27.343Z,53.69
2017-06-03T09:34:52.850Z,54.56
2017-06-03T09:35:18.315Z,54.17
2017-06-03T09:35:43.799Z,53.69
2017-06-03T09:36:09.271Z,53
2017-06-03T09:36:34.768Z,52.72
2017-06-03T09:37:00.273Z,52.81
2017-06-03T09:37:25.744Z,52.52
2017-06-03T09:37:51.220Z,53.1
2017-06-03T09:38:16.704Z,53.1
2017-06-03T09:38:42.211Z,52.62
2017-06-03T09:39:07.684Z,52.52
2017-06-03T09:39:33.189Z,52.74
2017-06-03T09:39:58.677Z,53.1
2017-06-03T09:40:24.174Z,52.94
2017-06-03T09:40:49.652Z,53.13
2017-06-03T09:41:15.134Z,53.03
2017-06-03T09:41:40.631Z,52.15
2017-06-03T09:42:06.094Z,52.35
2017-06-03T09:42:31.565Z,52.45
2017-06-03T09:42:57.033Z,52.25
2017-06-03T09:43:22.516Z,52.55
2017-06-03T09:43:47.992Z,52.15
2017-06-03T09:44:13.497Z,52.06
2017-06-03T09:44:38.962Z,51.77
2017-06-03T09:45:04.436Z,52.15
2017-06-03T09:45:29.949Z,52.15
2017-06-03T09:45:55.446Z,51.57
2017-06-03T09:46:20.899Z,51.18
2017-06-03T09:46:46.384Z,51.18
2017-06-03T09:47:11.863Z,51.38
2017-06-03T09:47:37.356Z,51.09
2017-06-03T09:48:02.849Z,51.38
2017-06-03T09:48:28.349Z,50.99
2017-06-03T09:48:53.813Z,50.6
2017-06-03T09:49:19.319Z,50.8
2017-06-03T09:49:44.803Z,50.8
2017-06-03T09:50:10.297Z,50.99
2017-06-03T09:50:35.765Z,50.82
2017-06-03T09:51:01.245Z,50.8
2017-06-03T09:51:26.741Z,50.7
2017-06-03T09:51:52.238Z,51.31
2017-06-03T09:52:17.753Z,50.73
2017-06-03T09:52:43.238Z,50.92
2017-06-03T09:53:08.727Z,50.73
2017-06-03T09:53:34.219Z,50.34
2017-06-03T09:53:59.707Z,50.43
2017-06-03T09:54:25.208Z,50.53
2017-06-03T09:54:50.676Z,50.53
2017-06-03T09:55:16.174Z,50.53
2017-06-03T09:55:41.655Z,50.63
2017-06-03T09:56:07.126Z,49.76
2017-06-03T09:56:32.624Z,49.66
2017-06-03T09:56:58.085Z,49.27
2017-06-03T09:57:23.576Z,49.17
2017-06-03T09:57:49.084Z,48.95
2017-06-03T09:58:14.571Z,49.17
2017-06-03T09:58:40.056Z,49.27
2017-06-03T09:59:05.533Z,48.85
2017-06-03T09:59:31.027Z,49.05
2017-06-03T09:59:56.514Z,48.66
2017-06-03T10:00:22.009Z,49.27
2017-06-03T10:00:47.499Z,49.15
2017-06-03T10:01:13.018Z,49.34
2017-06-03T10:01:38.488Z,49.15
2017-06-03T10:02:03.963Z,48.66
2017-06-03T10:02:29.450Z,47.98
2017-06-03T10:02:54.923Z,48.37
2017-06-03T10:03:20.552Z,47.69
2017-06-03T10:03:45.883Z,47.59
2017-06-03T10:04:11.374Z,48.08
2017-06-03T10:04:36.872Z,48.18
2017-06-03T10:05:02.368Z,48.57
2017-06-03T10:05:27.826Z,48.08
2017-06-03T10:05:53.336Z,48.08
2017-06-03T10:06:18.833Z,48.27
2017-06-03T10:06:44.324Z,48.08
2017-06-03T10:07:09.842Z,48.08
2017-06-03T10:07:35.363Z,48.37
2017-06-03T10:08:00.861Z,48.37
2017-06-03T10:08:26.366Z,48.08
2017-06-03T10:08:51.843Z,47.88
2017-06-03T10:09:17.348Z,47.69
2017-06-03T10:09:42.824Z,47.11
2017-06-03T10:10:08.331Z,47.13
2017-06-03T10:10:33.808Z,46.84
2017-06-03T10:10:59.278Z,46.55
2017-06-03T10:11:24.776Z,46.25
2017-06-03T10:11:50.250Z,46.25
2017-06-03T10:12:15.750Z,46.35
2017-06-03T10:12:41.218Z,46.45
2017-06-03T10:13:06.718Z,46.84
2017-06-03T10:13:32.218Z,46.64
2017-06-03T10:13:57.737Z,46.94
2017-06-03T10:14:23.216Z,47.03
2017-06-03T10:14:48.721Z,46.74
2017-06-03T10:15:14.218Z,46.45
2017-06-03T10:15:39.684Z,46.45
2017-06-03T10:16:05.171Z,46.45
2017-06-03T10:16:30.649Z,46.25